sensor_id;sensor_type;location;lat;lon;timestamp;pressure;altitude;pressure_sealevel;temperature;humidity
80934;BME280;70392;51.144;17.050;2023-10-08T00:01:55;100319.36;;;12.53;93.07
80934;BME280;70392;51.144;17.050;2023-10-08T00:04:29;100331.29;;;12.48;93.25
80934;BME280;70392;51.144;17.050;2023-10-08T00:06:52;100333.85;;;12.44;93.07
80934;BME280;70392;51.144;17.050;2023-10-08T00:09:09;100330.92;;;12.41;92.88
80934;BME280;70392;51.144;17.050;2023-10-08T00:11:29;100326.17;;;12.36;93.41
80934;BME280;70392;51.144;17.050;2023-10-08T00:13:48;100310.59;;;12.31;93.95
80934;BME280;70392;51.144;17.050;2023-10-08T00:16:09;100314.17;;;12.29;94.14
80934;BME280;70392;51.144;17.050;2023-10-08T00:18:28;100317.51;;;12.34;93.63
80934;BME280;70392;51.144;17.050;2023-10-08T00:20:55;100312.72;;;12.29;93.58
80934;BME280;70392;51.144;17.050;2023-10-08T00:23:25;100310.74;;;12.35;94.08
80934;BME280;70392;51.144;17.050;2023-10-08T00:25:43;100329.74;;;12.30;93.83
80934;BME280;70392;51.144;17.050;2023-10-08T00:28:10;100335.80;;;12.26;93.37
80934;BME280;70392;51.144;17.050;2023-10-08T00:30:26;100340.77;;;12.30;93.42
80934;BME280;70392;51.144;17.050;2023-10-08T00:32:42;100337.23;;;12.25;93.33
80934;BME280;70392;51.144;17.050;2023-10-08T00:34:59;100337.37;;;12.16;93.75
80934;BME280;70392;51.144;17.050;2023-10-08T00:37:15;100341.84;;;12.11;93.65
80934;BME280;70392;51.144;17.050;2023-10-08T00:39:41;100338.66;;;12.09;93.56
80934;BME280;70392;51.144;17.050;2023-10-08T00:42:07;100340.00;;;11.98;93.41
80934;BME280;70392;51.144;17.050;2023-10-08T00:44:29;100335.09;;;12.04;93.40
80934;BME280;70392;51.144;17.050;2023-10-08T00:46:50;100323.71;;;11.97;93.79
80934;BME280;70392;51.144;17.050;2023-10-08T00:49:11;100328.27;;;11.99;93.75
80934;BME280;70392;51.144;17.050;2023-10-08T00:52:00;100319.25;;;12.01;93.75
80934;BME280;70392;51.144;17.050;2023-10-08T00:54:25;100319.43;;;12.03;93.30
80934;BME280;70392;51.144;17.050;2023-10-08T00:56:53;100338.66;;;12.02;93.69
80934;BME280;70392;51.144;17.050;2023-10-08T00:59:17;100332.30;;;12.06;93.35
80934;BME280;70392;51.144;17.050;2023-10-08T01:01:39;100345.79;;;11.99;93.42
80934;BME280;70392;51.144;17.050;2023-10-08T01:03:56;100342.48;;;11.98;93.64
80934;BME280;70392;51.144;17.050;2023-10-08T01:06:12;100328.03;;;11.94;93.83
80934;BME280;70392;51.144;17.050;2023-10-08T01:08:36;100324.82;;;11.89;93.88
80934;BME280;70392;51.144;17.050;2023-10-08T01:11:23;100327.30;;;11.90;93.49
80934;BME280;70392;51.144;17.050;2023-10-08T01:13:59;100321.23;;;11.99;93.71
80934;BME280;70392;51.144;17.050;2023-10-08T01:16:21;100311.84;;;12.01;93.24
80934;BME280;70392;51.144;17.050;2023-10-08T01:18:43;100304.13;;;11.93;93.00
80934;BME280;70392;51.144;17.050;2023-10-08T01:21:11;100318.91;;;11.88;93.26
80934;BME280;70392;51.144;17.050;2023-10-08T01:23:48;100335.80;;;11.78;93.19
80934;BME280;70392;51.144;17.050;2023-10-08T01:26:09;100335.35;;;11.61;93.57
80934;BME280;70392;51.144;17.050;2023-10-08T01:28:29;100342.59;;;11.61;94.18
80934;BME280;70392;51.144;17.050;2023-10-08T01:30:55;100339.99;;;11.65;94.07
80934;BME280;70392;51.144;17.050;2023-10-08T01:33:21;100336.51;;;11.67;94.21
80934;BME280;70392;51.144;17.050;2023-10-08T01:35:41;100343.84;;;11.62;94.25
80934;BME280;70392;51.144;17.050;2023-10-08T01:37:59;100343.48;;;11.59;94.43
80934;BME280;70392;51.144;17.050;2023-10-08T01:40:17;100346.38;;;11.60;94.39
80934;BME280;70392;51.144;17.050;2023-10-08T01:42:38;100350.48;;;11.53;94.14
80934;BME280;70392;51.144;17.050;2023-10-08T01:44:58;100350.12;;;11.47;94.54
80934;BME280;70392;51.144;17.050;2023-10-08T01:47:16;100355.01;;;11.44;94.32
80934;BME280;70392;51.144;17.050;2023-10-08T01:49:33;100362.98;;;11.44;94.13
80934;BME280;70392;51.144;17.050;2023-10-08T01:51:50;100353.80;;;11.34;93.91
80934;BME280;70392;51.144;17.050;2023-10-08T01:54:10;100363.65;;;11.29;94.38
80934;BME280;70392;51.144;17.050;2023-10-08T01:56:44;100385.73;;;11.34;94.28
80934;BME280;70392;51.144;17.050;2023-10-08T01:59:04;100391.67;;;11.35;94.02
80934;BME280;70392;51.144;17.050;2023-10-08T02:01:21;100391.65;;;11.30;93.71
80934;BME280;70392;51.144;17.050;2023-10-08T02:03:38;100389.62;;;11.27;94.20
80934;BME280;70392;51.144;17.050;2023-10-08T02:05:59;100389.88;;;11.18;94.30
80934;BME280;70392;51.144;17.050;2023-10-08T02:08:19;100389.13;;;11.16;94.52
80934;BME280;70392;51.144;17.050;2023-10-08T02:10:37;100393.77;;;11.22;94.34
80934;BME280;70392;51.144;17.050;2023-10-08T02:13:07;100404.09;;;11.21;94.15
80934;BME280;70392;51.144;17.050;2023-10-08T02:15:24;100404.34;;;11.25;94.15
80934;BME280;70392;51.144;17.050;2023-10-08T02:17:50;100401.83;;;11.19;94.12
80934;BME280;70392;51.144;17.050;2023-10-08T02:20:08;100400.71;;;11.17;94.24
80934;BME280;70392;51.144;17.050;2023-10-08T02:22:27;100411.73;;;11.13;94.23
80934;BME280;70392;51.144;17.050;2023-10-08T02:24:43;100425.34;;;11.11;94.38
80934;BME280;70392;51.144;17.050;2023-10-08T02:27:01;100440.61;;;10.95;94.56
80934;BME280;70392;51.144;17.050;2023-10-08T02:29:19;100446.22;;;10.86;95.12
80934;BME280;70392;51.144;17.050;2023-10-08T02:31:36;100441.55;;;10.85;95.23
80934;BME280;70392;51.144;17.050;2023-10-08T02:33:54;100451.47;;;10.90;95.36
80934;BME280;70392;51.144;17.050;2023-10-08T02:36:10;100474.92;;;10.85;95.77
80934;BME280;70392;51.144;17.050;2023-10-08T02:38:30;100486.60;;;10.77;96.43
80934;BME280;70392;51.144;17.050;2023-10-08T02:40:56;100488.85;;;10.85;96.18
80934;BME280;70392;51.144;17.050;2023-10-08T02:43:36;100473.83;;;10.87;96.43
80934;BME280;70392;51.144;17.050;2023-10-08T02:45:56;100491.84;;;10.78;96.38
80934;BME280;70392;51.144;17.050;2023-10-08T02:48:18;100480.30;;;10.57;96.94
80934;BME280;70392;51.144;17.050;2023-10-08T02:50:38;100478.77;;;10.50;96.68
80934;BME280;70392;51.144;17.050;2023-10-08T02:53:10;100482.83;;;10.58;96.74
80934;BME280;70392;51.144;17.050;2023-10-08T02:55:34;100485.48;;;10.53;96.58
80934;BME280;70392;51.144;17.050;2023-10-08T02:57:51;100490.79;;;10.62;96.45
80934;BME280;70392;51.144;17.050;2023-10-08T03:00:13;100493.15;;;10.61;95.84
80934;BME280;70392;51.144;17.050;2023-10-08T03:02:39;100485.98;;;10.36;96.17
80934;BME280;70392;51.144;17.050;2023-10-08T03:04:56;100497.41;;;10.49;96.17
80934;BME280;70392;51.144;17.050;2023-10-08T03:07:21;100489.09;;;10.32;96.29
80934;BME280;70392;51.144;17.050;2023-10-08T03:09:42;100491.68;;;10.31;96.96
80934;BME280;70392;51.144;17.050;2023-10-08T03:12:09;100490.24;;;10.39;96.74
80934;BME280;70392;51.144;17.050;2023-10-08T03:14:26;100495.85;;;10.46;96.38
80934;BME280;70392;51.144;17.050;2023-10-08T03:16:52;100492.68;;;10.41;96.79
80934;BME280;70392;51.144;17.050;2023-10-08T03:19:11;100493.96;;;10.57;96.59
80934;BME280;70392;51.144;17.050;2023-10-08T03:21:32;100503.36;;;10.50;96.36
80934;BME280;70392;51.144;17.050;2023-10-08T03:23:59;100516.51;;;10.49;96.35
80934;BME280;70392;51.144;17.050;2023-10-08T03:26:21;100517.08;;;10.52;96.43
80934;BME280;70392;51.144;17.050;2023-10-08T03:28:43;100527.66;;;10.58;96.39
80934;BME280;70392;51.144;17.050;2023-10-08T03:31:17;100541.98;;;10.54;96.30
80934;BME280;70392;51.144;17.050;2023-10-08T03:33:38;100540.64;;;10.49;96.50
80934;BME280;70392;51.144;17.050;2023-10-08T03:35:55;100545.55;;;10.51;96.85
80934;BME280;70392;51.144;17.050;2023-10-08T03:38:19;100547.19;;;10.52;96.91
80934;BME280;70392;51.144;17.050;2023-10-08T03:40:49;100550.66;;;10.63;96.69
80934;BME280;70392;51.144;17.050;2023-10-08T03:43:16;100547.30;;;10.45;96.73
80934;BME280;70392;51.144;17.050;2023-10-08T03:45:45;100554.61;;;10.47;96.71
80934;BME280;70392;51.144;17.050;2023-10-08T03:48:11;100569.89;;;10.39;97.28
80934;BME280;70392;51.144;17.050;2023-10-08T03:50:41;100568.97;;;10.35;97.43
80934;BME280;70392;51.144;17.050;2023-10-08T03:53:03;100566.11;;;10.29;97.41
80934;BME280;70392;51.144;17.050;2023-10-08T03:55:27;100572.67;;;10.43;97.51
80934;BME280;70392;51.144;17.050;2023-10-08T03:57:48;100568.86;;;10.49;97.09
80934;BME280;70392;51.144;17.050;2023-10-08T04:00:17;100568.42;;;10.28;96.81
80934;BME280;70392;51.144;17.050;2023-10-08T04:02:57;100575.55;;;10.21;97.35
80934;BME280;70392;51.144;17.050;2023-10-08T04:05:20;100578.08;;;10.35;97.00
80934;BME280;70392;51.144;17.050;2023-10-08T04:08:00;100592.14;;;10.30;97.12
80934;BME280;70392;51.144;17.050;2023-10-08T04:10:57;100590.27;;;10.41;97.04
80934;BME280;70392;51.144;17.050;2023-10-08T04:13:20;100578.79;;;10.48;96.53
80934;BME280;70392;51.144;17.050;2023-10-08T04:15:40;100587.88;;;10.46;96.44
80934;BME280;70392;51.144;17.050;2023-10-08T04:18:03;100593.12;;;10.51;96.11
80934;BME280;70392;51.144;17.050;2023-10-08T04:20:24;100583.30;;;10.58;96.23
80934;BME280;70392;51.144;17.050;2023-10-08T04:22:47;100571.38;;;10.56;96.25
80934;BME280;70392;51.144;17.050;2023-10-08T04:25:06;100553.95;;;10.42;96.54
80934;BME280;70392;51.144;17.050;2023-10-08T04:27:29;100554.42;;;10.50;96.51
80934;BME280;70392;51.144;17.050;2023-10-08T04:29:50;100556.67;;;10.53;96.41
80934;BME280;70392;51.144;17.050;2023-10-08T04:32:12;100567.53;;;10.35;96.51
80934;BME280;70392;51.144;17.050;2023-10-08T04:34:29;100570.39;;;10.45;96.73
80934;BME280;70392;51.144;17.050;2023-10-08T04:36:47;100582.64;;;10.49;96.55
80934;BME280;70392;51.144;17.050;2023-10-08T04:39:16;100602.82;;;10.49;96.44
80934;BME280;70392;51.144;17.050;2023-10-08T04:41:42;100604.13;;;10.50;95.78
80934;BME280;70392;51.144;17.050;2023-10-08T04:44:06;100597.11;;;10.53;96.06
80934;BME280;70392;51.144;17.050;2023-10-08T04:46:40;100595.83;;;10.50;95.94
80934;BME280;70392;51.144;17.050;2023-10-08T04:49:07;100597.42;;;10.44;95.65
80934;BME280;70392;51.144;17.050;2023-10-08T04:51:43;100621.22;;;10.46;96.07
80934;BME280;70392;51.144;17.050;2023-10-08T04:54:05;100622.38;;;10.35;96.10
80934;BME280;70392;51.144;17.050;2023-10-08T04:56:23;100631.71;;;10.23;96.01
80934;BME280;70392;51.144;17.050;2023-10-08T04:58:47;100628.03;;;10.26;96.50
80934;BME280;70392;51.144;17.050;2023-10-08T05:01:09;100610.90;;;10.25;96.84
80934;BME280;70392;51.144;17.050;2023-10-08T05:03:47;100624.18;;;10.30;96.61
80934;BME280;70392;51.144;17.050;2023-10-08T05:06:16;100642.40;;;10.31;96.42
80934;BME280;70392;51.144;17.050;2023-10-08T05:08:58;100671.41;;;10.18;96.87
80934;BME280;70392;51.144;17.050;2023-10-08T05:11:37;100675.41;;;10.09;96.97
80934;BME280;70392;51.144;17.050;2023-10-08T05:14:03;100674.54;;;10.34;96.92
80934;BME280;70392;51.144;17.050;2023-10-08T05:16:29;100675.35;;;10.17;96.88
80934;BME280;70392;51.144;17.050;2023-10-08T05:18:55;100674.59;;;10.24;97.34
80934;BME280;70392;51.144;17.050;2023-10-08T05:21:41;100683.66;;;10.28;96.77
80934;BME280;70392;51.144;17.050;2023-10-08T05:24:09;100684.16;;;10.34;96.86
80934;BME280;70392;51.144;17.050;2023-10-08T05:26:41;100702.19;;;10.23;96.81
80934;BME280;70392;51.144;17.050;2023-10-08T05:29:23;100710.53;;;10.28;97.09
80934;BME280;70392;51.144;17.050;2023-10-08T05:31:53;100714.39;;;10.48;96.45
80934;BME280;70392;51.144;17.050;2023-10-08T05:34:42;100717.66;;;10.61;95.67
80934;BME280;70392;51.144;17.050;2023-10-08T05:37:32;100713.76;;;10.70;95.47
80934;BME280;70392;51.144;17.050;2023-10-08T05:39:56;100729.41;;;10.83;95.23
80934;BME280;70392;51.144;17.050;2023-10-08T05:42:20;100733.72;;;10.60;95.34
80934;BME280;70392;51.144;17.050;2023-10-08T05:45:10;100748.12;;;10.63;95.48
80934;BME280;70392;51.144;17.050;2023-10-08T05:47:48;100760.79;;;10.60;95.61
80934;BME280;70392;51.144;17.050;2023-10-08T05:50:32;100774.73;;;10.57;96.10
80934;BME280;70392;51.144;17.050;2023-10-08T05:52:58;100767.29;;;10.72;95.75
80934;BME280;70392;51.144;17.050;2023-10-08T05:55:27;100767.80;;;10.63;95.63
80934;BME280;70392;51.144;17.050;2023-10-08T05:57:53;100775.41;;;10.68;95.77
80934;BME280;70392;51.144;17.050;2023-10-08T06:00:44;100786.62;;;10.66;95.55
80934;BME280;70392;51.144;17.050;2023-10-08T06:03:10;100796.63;;;10.61;95.92
80934;BME280;70392;51.144;17.050;2023-10-08T06:06:03;100795.05;;;10.51;95.83
80934;BME280;70392;51.144;17.050;2023-10-08T06:08:45;100811.45;;;10.76;95.24
80934;BME280;70392;51.144;17.050;2023-10-08T06:11:18;100814.49;;;10.75;95.19
80934;BME280;70392;51.144;17.050;2023-10-08T06:14:12;100824.22;;;11.01;94.16
80934;BME280;70392;51.144;17.050;2023-10-08T06:16:42;100825.28;;;10.92;93.77
80934;BME280;70392;51.144;17.050;2023-10-08T06:19:00;100829.53;;;11.14;93.08
80934;BME280;70392;51.144;17.050;2023-10-08T06:21:19;100822.12;;;10.94;92.68
80934;BME280;70392;51.144;17.050;2023-10-08T06:23:40;100827.48;;;11.09;92.78
80934;BME280;70392;51.144;17.050;2023-10-08T06:26:10;100835.86;;;11.34;92.39
80934;BME280;70392;51.144;17.050;2023-10-08T06:28:43;100850.40;;;11.41;91.36
80934;BME280;70392;51.144;17.050;2023-10-08T06:31:26;100844.05;;;11.61;90.46
80934;BME280;70392;51.144;17.050;2023-10-08T06:33:45;100858.66;;;11.57;90.39
80934;BME280;70392;51.144;17.050;2023-10-08T06:36:06;100863.01;;;11.67;90.21
80934;BME280;70392;51.144;17.050;2023-10-08T06:38:33;100870.85;;;11.73;89.85
80934;BME280;70392;51.144;17.050;2023-10-08T06:40:53;100879.02;;;11.58;88.89
80934;BME280;70392;51.144;17.050;2023-10-08T06:43:15;100870.67;;;11.54;89.57
80934;BME280;70392;51.144;17.050;2023-10-08T06:45:33;100879.23;;;11.73;88.99
80934;BME280;70392;51.144;17.050;2023-10-08T06:47:52;100884.70;;;11.54;89.14
80934;BME280;70392;51.144;17.050;2023-10-08T06:50:29;100891.09;;;11.73;88.96
80934;BME280;70392;51.144;17.050;2023-10-08T06:52:49;100896.12;;;11.69;88.46
80934;BME280;70392;51.144;17.050;2023-10-08T06:55:11;100907.05;;;11.80;87.58
80934;BME280;70392;51.144;17.050;2023-10-08T06:57:27;100921.02;;;11.87;87.30
80934;BME280;70392;51.144;17.050;2023-10-08T06:59:50;100925.76;;;11.72;86.73
80934;BME280;70392;51.144;17.050;2023-10-08T07:02:08;100928.07;;;11.70;86.25
80934;BME280;70392;51.144;17.050;2023-10-08T07:04:48;100926.52;;;11.67;87.23
80934;BME280;70392;51.144;17.050;2023-10-08T07:07:09;100935.04;;;11.94;87.78
80934;BME280;70392;51.144;17.050;2023-10-08T07:09:34;100933.98;;;11.48;86.11
80934;BME280;70392;51.144;17.050;2023-10-08T07:11:58;100933.59;;;11.67;85.89
80934;BME280;70392;51.144;17.050;2023-10-08T07:14:15;100952.75;;;11.45;84.80
80934;BME280;70392;51.144;17.050;2023-10-08T07:16:34;100957.70;;;11.45;85.66
80934;BME280;70392;51.144;17.050;2023-10-08T07:19:32;100961.02;;;11.64;87.13
80934;BME280;70392;51.144;17.050;2023-10-08T07:22:03;100978.23;;;11.87;84.31
80934;BME280;70392;51.144;17.050;2023-10-08T07:24:37;100975.64;;;11.96;84.53
80934;BME280;70392;51.144;17.050;2023-10-08T07:26:58;100978.44;;;11.99;85.06
80934;BME280;70392;51.144;17.050;2023-10-08T07:29:17;100976.92;;;11.92;83.69
80934;BME280;70392;51.144;17.050;2023-10-08T07:31:43;100981.41;;;12.03;84.51
80934;BME280;70392;51.144;17.050;2023-10-08T07:34:10;100979.09;;;12.11;84.04
80934;BME280;70392;51.144;17.050;2023-10-08T07:36:31;100989.36;;;12.19;82.44
80934;BME280;70392;51.144;17.050;2023-10-08T07:38:48;100979.03;;;12.25;81.86
80934;BME280;70392;51.144;17.050;2023-10-08T07:41:06;100977.90;;;12.31;81.49
80934;BME280;70392;51.144;17.050;2023-10-08T07:43:22;101001.45;;;12.27;81.26
80934;BME280;70392;51.144;17.050;2023-10-08T07:45:40;101006.27;;;12.23;80.63
80934;BME280;70392;51.144;17.050;2023-10-08T07:48:09;101006.12;;;12.48;81.63
80934;BME280;70392;51.144;17.050;2023-10-08T07:50:29;101006.98;;;12.47;80.27
80934;BME280;70392;51.144;17.050;2023-10-08T07:52:46;101006.91;;;12.20;79.70
80934;BME280;70392;51.144;17.050;2023-10-08T07:55:05;101015.57;;;12.01;78.84
80934;BME280;70392;51.144;17.050;2023-10-08T07:57:26;101016.95;;;11.82;80.40
80934;BME280;70392;51.144;17.050;2023-10-08T07:59:49;101022.04;;;11.65;78.42
80934;BME280;70392;51.144;17.050;2023-10-08T08:02:12;101027.18;;;11.59;79.98
80934;BME280;70392;51.144;17.050;2023-10-08T08:04:33;101026.37;;;11.55;80.33
80934;BME280;70392;51.144;17.050;2023-10-08T08:06:53;101023.62;;;11.61;78.86
80934;BME280;70392;51.144;17.050;2023-10-08T08:09:19;101037.20;;;11.26;77.54
80934;BME280;70392;51.144;17.050;2023-10-08T08:11:56;101043.50;;;11.23;76.44
80934;BME280;70392;51.144;17.050;2023-10-08T08:14:16;101052.11;;;11.01;74.70
80934;BME280;70392;51.144;17.050;2023-10-08T08:16:36;101060.19;;;11.00;73.18
80934;BME280;70392;51.144;17.050;2023-10-08T08:18:57;101056.01;;;11.26;76.47
80934;BME280;70392;51.144;17.050;2023-10-08T08:21:16;101063.94;;;11.43;78.53
80934;BME280;70392;51.144;17.050;2023-10-08T08:23:33;101063.77;;;11.53;78.67
80934;BME280;70392;51.144;17.050;2023-10-08T08:25:56;101061.03;;;11.66;79.52
80934;BME280;70392;51.144;17.050;2023-10-08T08:28:29;101062.88;;;11.66;77.66
80934;BME280;70392;51.144;17.050;2023-10-08T08:30:48;101066.65;;;11.68;74.99
80934;BME280;70392;51.144;17.050;2023-10-08T08:33:10;101061.36;;;11.71;74.26
80934;BME280;70392;51.144;17.050;2023-10-08T08:35:26;101070.49;;;11.87;77.47
80934;BME280;70392;51.144;17.050;2023-10-08T08:37:46;101068.53;;;12.03;78.75
80934;BME280;70392;51.144;17.050;2023-10-08T08:40:18;101075.32;;;12.24;73.33
80934;BME280;70392;51.144;17.050;2023-10-08T08:42:37;101078.23;;;12.35;73.87
80934;BME280;70392;51.144;17.050;2023-10-08T08:44:57;101079.50;;;12.35;69.69
80934;BME280;70392;51.144;17.050;2023-10-08T08:47:19;101083.58;;;12.26;70.79
80934;BME280;70392;51.144;17.050;2023-10-08T08:49:43;101087.81;;;11.82;65.46
80934;BME280;70392;51.144;17.050;2023-10-08T08:52:05;101090.44;;;12.01;74.08
80934;BME280;70392;51.144;17.050;2023-10-08T08:54:22;101085.37;;;12.04;67.79
80934;BME280;70392;51.144;17.050;2023-10-08T08:56:41;101091.98;;;12.12;70.91
80934;BME280;70392;51.144;17.050;2023-10-08T08:59:01;101093.31;;;12.21;70.57
80934;BME280;70392;51.144;17.050;2023-10-08T09:01:20;101091.42;;;12.29;71.30
80934;BME280;70392;51.144;17.050;2023-10-08T09:03:39;101095.86;;;11.81;66.19
80934;BME280;70392;51.144;17.050;2023-10-08T09:05:58;101103.92;;;11.82;66.44
80934;BME280;70392;51.144;17.050;2023-10-08T09:08:19;101100.74;;;11.69;69.00
80934;BME280;70392;51.144;17.050;2023-10-08T09:10:51;101101.49;;;11.74;63.62
80934;BME280;70392;51.144;17.050;2023-10-08T09:13:11;101113.74;;;11.66;65.03
80934;BME280;70392;51.144;17.050;2023-10-08T09:15:29;101108.84;;;11.76;69.37
80934;BME280;70392;51.144;17.050;2023-10-08T09:17:46;101108.53;;;11.82;69.07
80934;BME280;70392;51.144;17.050;2023-10-08T09:20:07;101110.34;;;11.61;62.14
80934;BME280;70392;51.144;17.050;2023-10-08T09:22:31;101114.72;;;11.39;59.12
80934;BME280;70392;51.144;17.050;2023-10-08T09:24:49;101116.34;;;10.88;59.60
80934;BME280;70392;51.144;17.050;2023-10-08T09:27:10;101126.89;;;10.91;65.01
80934;BME280;70392;51.144;17.050;2023-10-08T09:29:43;101134.70;;;11.39;65.05
80934;BME280;70392;51.144;17.050;2023-10-08T09:32:00;101127.36;;;11.70;67.13
80934;BME280;70392;51.144;17.050;2023-10-08T09:34:27;101141.27;;;11.94;64.76
80934;BME280;70392;51.144;17.050;2023-10-08T09:36:44;101149.45;;;12.13;59.63
80934;BME280;70392;51.144;17.050;2023-10-08T09:39:23;101152.95;;;11.53;59.51
80934;BME280;70392;51.144;17.050;2023-10-08T09:41:41;101155.49;;;11.49;57.82
80934;BME280;70392;51.144;17.050;2023-10-08T09:44:00;101167.18;;;11.48;58.60
80934;BME280;70392;51.144;17.050;2023-10-08T09:46:23;101173.84;;;11.89;67.36
80934;BME280;70392;51.144;17.050;2023-10-08T09:49:01;101164.77;;;12.05;60.96
80934;BME280;70392;51.144;17.050;2023-10-08T09:51:20;101170.87;;;11.96;60.49
80934;BME280;70392;51.144;17.050;2023-10-08T09:54:05;101174.77;;;11.91;57.42
80934;BME280;70392;51.144;17.050;2023-10-08T09:56:31;101188.71;;;11.94;64.25
80934;BME280;70392;51.144;17.050;2023-10-08T09:58:49;101190.96;;;11.68;58.82
80934;BME280;70392;51.144;17.050;2023-10-08T10:01:07;101193.54;;;11.57;59.46
80934;BME280;70392;51.144;17.050;2023-10-08T10:03:26;101191.20;;;11.69;58.21
80934;BME280;70392;51.144;17.050;2023-10-08T10:05:45;101191.48;;;11.69;57.94
80934;BME280;70392;51.144;17.050;2023-10-08T10:08:10;101191.19;;;11.88;58.55
80934;BME280;70392;51.144;17.050;2023-10-08T10:10:32;101195.91;;;12.09;57.78
80934;BME280;70392;51.144;17.050;2023-10-08T10:12:58;101193.09;;;12.48;60.56
80934;BME280;70392;51.144;17.050;2023-10-08T10:15:42;101200.71;;;12.65;59.13
80934;BME280;70392;51.144;17.050;2023-10-08T10:20:32;101197.77;;;13.02;59.79
80934;BME280;70392;51.144;17.050;2023-10-08T10:22:48;101191.17;;;12.94;56.46
80934;BME280;70392;51.144;17.050;2023-10-08T10:25:12;101190.14;;;13.06;56.59
80934;BME280;70392;51.144;17.050;2023-10-08T10:27:35;101202.25;;;13.21;62.50
80934;BME280;70392;51.144;17.050;2023-10-08T10:29:53;101207.97;;;13.50;59.17
80934;BME280;70392;51.144;17.050;2023-10-08T10:32:22;101204.15;;;13.87;62.45
80934;BME280;70392;51.144;17.050;2023-10-08T10:34:39;101210.98;;;14.09;63.07
80934;BME280;70392;51.144;17.050;2023-10-08T10:37:06;101210.28;;;14.09;55.46
80934;BME280;70392;51.144;17.050;2023-10-08T10:39:27;101208.46;;;14.33;53.20
80934;BME280;70392;51.144;17.050;2023-10-08T10:42:07;101209.47;;;14.06;52.72
80934;BME280;70392;51.144;17.050;2023-10-08T10:44:39;101215.67;;;14.09;55.66
80934;BME280;70392;51.144;17.050;2023-10-08T10:47:03;101207.56;;;14.10;55.52
80934;BME280;70392;51.144;17.050;2023-10-08T10:49:32;101214.66;;;14.71;53.73
80934;BME280;70392;51.144;17.050;2023-10-08T10:51:57;101223.11;;;15.03;50.95
80934;BME280;70392;51.144;17.050;2023-10-08T10:54:20;101213.67;;;15.34;49.36
80934;BME280;70392;51.144;17.050;2023-10-08T10:56:47;101224.41;;;16.07;50.24
80934;BME280;70392;51.144;17.050;2023-10-08T10:59:39;101216.67;;;15.82;42.00
80934;BME280;70392;51.144;17.050;2023-10-08T11:02:04;101219.01;;;16.33;46.55
80934;BME280;70392;51.144;17.050;2023-10-08T11:04:43;101221.41;;;17.02;46.25
80934;BME280;70392;51.144;17.050;2023-10-08T11:07:06;101219.95;;;17.42;47.92
80934;BME280;70392;51.144;17.050;2023-10-08T11:09:37;101221.98;;;18.00;45.04
80934;BME280;70392;51.144;17.050;2023-10-08T11:11:55;101218.79;;;17.11;42.11
80934;BME280;70392;51.144;17.050;2023-10-08T11:14:18;101228.07;;;17.22;47.73
80934;BME280;70392;51.144;17.050;2023-10-08T11:16:44;101222.66;;;17.46;41.35
80934;BME280;70392;51.144;17.050;2023-10-08T11:19:08;101226.44;;;17.26;45.90
80934;BME280;70392;51.144;17.050;2023-10-08T11:21:47;101217.77;;;17.61;48.19
80934;BME280;70392;51.144;17.050;2023-10-08T11:24:09;101218.11;;;19.04;47.72
80934;BME280;70392;51.144;17.050;2023-10-08T11:26:34;101227.02;;;19.35;40.65
80934;BME280;70392;51.144;17.050;2023-10-08T11:28:54;101225.12;;;19.00;39.22
80934;BME280;70392;51.144;17.050;2023-10-08T11:31:15;101225.97;;;18.62;42.02
80934;BME280;70392;51.144;17.050;2023-10-08T11:33:37;101221.52;;;18.85;38.96
80934;BME280;70392;51.144;17.050;2023-10-08T11:36:07;101226.73;;;19.03;36.86
80934;BME280;70392;51.144;17.050;2023-10-08T11:38:41;101228.09;;;18.52;42.16
80934;BME280;70392;51.144;17.050;2023-10-08T11:41:14;101216.95;;;17.55;39.78
80934;BME280;70392;51.144;17.050;2023-10-08T11:43:37;101212.11;;;18.44;38.93
80934;BME280;70392;51.144;17.050;2023-10-08T11:45:55;101220.55;;;19.30;37.78
80934;BME280;70392;51.144;17.050;2023-10-08T11:48:24;101214.27;;;19.46;39.60
80934;BME280;70392;51.144;17.050;2023-10-08T11:50:45;101224.33;;;19.78;38.63
80934;BME280;70392;51.144;17.050;2023-10-08T11:53:03;101213.55;;;20.09;39.88
80934;BME280;70392;51.144;17.050;2023-10-08T11:55:21;101205.21;;;19.75;39.08
80934;BME280;70392;51.144;17.050;2023-10-08T11:57:46;101212.27;;;20.20;42.66
80934;BME280;70392;51.144;17.050;2023-10-08T12:00:19;101215.58;;;19.85;37.52
80934;BME280;70392;51.144;17.050;2023-10-08T12:02:35;101217.91;;;19.97;36.48
80934;BME280;70392;51.144;17.050;2023-10-08T12:04:57;101215.73;;;19.27;38.32
80934;BME280;70392;51.144;17.050;2023-10-08T12:07:17;101214.80;;;20.17;41.73
80934;BME280;70392;51.144;17.050;2023-10-08T12:09:38;101216.98;;;20.94;39.48
80934;BME280;70392;51.144;17.050;2023-10-08T12:11:57;101216.20;;;20.73;34.92
80934;BME280;70392;51.144;17.050;2023-10-08T12:14:15;101228.02;;;20.57;36.25
80934;BME280;70392;51.144;17.050;2023-10-08T12:16:52;101228.23;;;21.10;34.87
80934;BME280;70392;51.144;17.050;2023-10-08T12:19:13;101219.98;;;21.08;35.00
80934;BME280;70392;51.144;17.050;2023-10-08T12:21:32;101219.95;;;21.23;33.06
80934;BME280;70392;51.144;17.050;2023-10-08T12:23:51;101219.36;;;21.35;35.21
80934;BME280;70392;51.144;17.050;2023-10-08T12:26:16;101220.40;;;19.25;33.72
80934;BME280;70392;51.144;17.050;2023-10-08T12:28:36;101217.64;;;18.42;37.19
80934;BME280;70392;51.144;17.050;2023-10-08T12:30:53;101219.58;;;17.70;36.54